Time;durP1;ratioP1;P1;durP2;ratioP2;P2;SDS_P1;SDS_P2;PMS_P1;PMS_P2;Temp;Humidity;BMP_temperature;BMP_pressure;BME280_temperature;BME280_humidity;BME280_pressure;Samples;Min_cycle;Max_cycle;Signal;HPM_P1;HPM_P2
2023/02/01 00:01:54;;;;;;;32.00;22.55;;;7.70;76.10;;;;;;6276990;22;19995;-76
2023/02/01 00:04:20;;;;;;;35.58;22.30;;;7.70;75.70;;;;;;6275556;22;20430;-74
2023/02/01 00:06:46;;;;;;;37.00;21.50;;;7.70;75.40;;;;;;6278389;22;19996;-75
2023/02/01 00:09:12;;;;;;;34.58;21.70;;;7.70;75.80;;;;;;6281310;22;20006;-75
2023/02/01 00:11:37;;;;;;;33.05;22.13;;;7.60;75.50;;;;;;6282318;22;20457;-74
2023/02/01 00:14:03;;;;;;;32.95;20.85;;;7.60;75.90;;;;;;6283090;22;20326;-76
2023/02/01 00:16:30;;;;;;;32.75;20.20;;;7.60;75.70;;;;;;6283138;22;20003;-75
2023/02/01 00:19:00;;;;;;;36.22;20.77;;;7.70;75.80;;;;;;6279572;22;20027;-76
2023/02/01 00:21:26;;;;;;;31.88;21.70;;;7.60;75.80;;;;;;6281815;22;19996;-76
2023/02/01 00:23:51;;;;;;;30.85;20.08;;;7.60;76.10;;;;;;6283428;22;20023;-76
2023/02/01 00:26:27;;;;;;;30.45;20.90;;;7.60;76.10;;;;;;6278226;22;19995;-75
2023/02/01 00:28:53;;;;;;;35.63;21.17;;;7.50;76.50;;;;;;6276708;22;20057;-76
2023/02/01 00:31:19;;;;;;;31.25;21.45;;;7.50;76.10;;;;;;6277551;22;20070;-75
2023/02/01 00:33:47;;;;;;;29.58;19.45;;;7.50;76.50;;;;;;6276936;22;20129;-76
2023/02/01 00:36:13;;;;;;;28.35;20.17;;;7.50;76.40;;;;;;6277059;22;21006;-76
2023/02/01 00:38:39;;;;;;;31.63;20.05;;;7.50;76.50;;;;;;6279461;22;20019;-75
2023/02/01 00:41:05;;;;;;;31.70;21.02;;;7.50;75.40;;;;;;6278562;22;20059;-75
2023/02/01 00:43:32;;;;;;;35.88;22.25;;;7.40;75.90;;;;;;6276635;22;20337;-77
2023/02/01 00:45:58;;;;;;;29.70;20.30;;;7.40;75.80;;;;;;6276938;22;20329;-74
2023/02/01 00:48:25;;;;;;;30.55;20.02;;;7.40;76.20;;;;;;6249396;22;20061;-75
2023/02/01 00:50:51;;;;;;;32.80;20.08;;;7.40;75.80;;;;;;6276274;22;20031;-75
2023/02/01 00:53:16;;;;;;;28.73;20.13;;;7.40;75.60;;;;;;6276724;22;20012;-75
2023/02/01 00:55:48;;;;;;;31.98;18.73;;;7.30;76.00;;;;;;6276923;22;20059;-76
2023/02/01 00:58:15;;;;;;;30.88;19.33;;;7.30;76.20;;;;;;6291892;22;20007;-76
2023/02/01 01:00:41;;;;;;;29.15;18.27;;;7.30;76.60;;;;;;6287512;22;20058;-75
2023/02/01 01:03:17;;;;;;;26.23;18.40;;;7.40;76.70;;;;;;6275557;22;20015;-75
2023/02/01 01:05:48;;;;;;;27.27;18.23;;;7.40;76.70;;;;;;6275686;22;20030;-75
2023/02/01 01:08:15;;;;;;;28.88;19.20;;;7.40;76.30;;;;;;6275508;22;20019;-76
2023/02/01 01:10:41;;;;;;;28.77;19.23;;;7.40;76.40;;;;;;6248323;22;20116;-74
2023/02/01 01:13:08;;;;;;;26.27;18.95;;;7.20;76.30;;;;;;6275792;22;20015;-74
2023/02/01 01:15:40;;;;;;;32.08;18.90;;;7.20;76.30;;;;;;6275777;22;20000;-74
2023/02/01 01:18:06;;;;;;;28.58;17.67;;;7.20;76.50;;;;;;6275197;22;20099;-74
2023/02/01 01:20:35;;;;;;;30.60;18.23;;;7.20;76.40;;;;;;6275477;22;20422;-75
2023/02/01 01:23:01;;;;;;;25.83;18.30;;;7.20;76.30;;;;;;6275504;22;19999;-74
2023/02/01 01:25:26;;;;;;;28.95;18.35;;;7.20;76.60;;;;;;6276681;22;20000;-74
2023/02/01 01:27:52;;;;;;;26.23;17.40;;;7.20;76.30;;;;;;6278189;22;20078;-75
2023/02/01 01:30:18;;;;;;;29.30;19.08;;;7.20;76.30;;;;;;6280819;22;20011;-76
2023/02/01 01:32:44;;;;;;;29.55;17.63;;;7.20;76.20;;;;;;6277488;22;20459;-76
2023/02/01 01:35:11;;;;;;;26.35;16.95;;;7.20;76.50;;;;;;6277456;22;20371;-74
2023/02/01 01:37:37;;;;;;;25.60;17.67;;;7.20;76.50;;;;;;6277338;22;20003;-74
2023/02/01 01:40:07;;;;;;;28.42;17.80;;;7.20;76.10;;;;;;6277248;22;20000;-75
2023/02/01 01:42:40;;;;;;;30.83;17.75;;;7.20;76.60;;;;;;6276723;22;20528;-74
2023/02/01 01:45:16;;;;;;;29.15;18.15;;;7.30;76.50;;;;;;6276925;22;20012;-75
2023/02/01 01:47:49;;;;;;;27.17;17.75;;;7.30;76.50;;;;;;6277519;22;20006;-74
2023/02/01 01:50:19;;;;;;;26.70;17.10;;;7.30;76.40;;;;;;6276910;22;19999;-75
2023/02/01 01:52:48;;;;;;;24.52;17.30;;;7.20;76.10;;;;;;6277131;22;20057;-73
2023/02/01 01:55:18;;;;;;;27.38;16.98;;;7.20;76.30;;;;;;6277058;22;20315;-74
2023/02/01 01:57:49;;;;;;;23.58;16.05;;;7.20;76.30;;;;;;6277100;22;20006;-74
2023/02/01 02:00:17;;;;;;;24.10;15.88;;;7.20;76.10;;;;;;6276927;22;20014;-74
2023/02/01 02:02:47;;;;;;;26.83;15.30;;;7.20;76.30;;;;;;6276947;22;20003;-75
2023/02/01 02:05:14;;;;;;;25.42;15.88;;;7.10;77.00;;;;;;6277139;22;20008;-75
2023/02/01 02:07:44;;;;;;;24.40;15.48;;;7.10;76.20;;;;;;6276501;22;20379;-74
2023/02/01 02:10:12;;;;;;;20.23;14.85;;;7.10;76.50;;;;;;6276747;22;20070;-75
2023/02/01 02:12:40;;;;;;;24.20;15.43;;;7.10;76.20;;;;;;6276832;22;20485;-74
2023/02/01 02:15:11;;;;;;;25.00;15.18;;;7.10;76.40;;;;;;6276567;22;20031;-74
2023/02/01 02:18:01;;;;;;;21.45;14.63;;;7.10;76.40;;;;;;6277505;22;20318;-75
2023/02/01 02:20:48;;;;;;;25.27;15.70;;;7.00;76.70;;;;;;6279579;22;20043;-75
2023/02/01 02:23:51;;;;;;;23.90;15.35;;;6.90;76.20;;;;;;6277215;22;20004;-75
2023/02/01 02:26:42;;;;;;;26.52;15.80;;;6.90;76.40;;;;;;6299646;22;20006;-74
2023/02/01 02:29:37;;;;;;;24.20;15.40;;;6.90;76.30;;;;;;6280369;22;20030;-76
2023/02/01 02:32:09;;;;;;;24.25;14.80;;;6.90;76.50;;;;;;6277209;22;20032;-75
2023/02/01 02:34:41;;;;;;;22.60;15.52;;;6.80;76.00;;;;;;6276764;22;19995;-74
2023/02/01 02:37:39;;;;;;;22.77;15.18;;;6.70;76.20;;;;;;6276387;22;20000;-73
2023/02/01 02:40:31;;;;;;;25.17;14.95;;;6.70;76.20;;;;;;6276797;22;20048;-75
2023/02/01 02:49:19;;;;;;;22.35;14.73;;;6.70;76.60;;;;;;6276094;22;20018;-73
2023/02/01 02:54:56;;;;;;;21.75;15.55;;;6.80;76.40;;;;;;6276289;22;20015;-76
2023/02/01 03:05:44;;;;;;;;;;;6.70;75.80;;;;;;6277088;22;20078;-74
2023/02/01 03:08:20;;;;;;;24.55;13.90;;;6.70;76.20;;;;;;6276184;22;19904;-75
2023/02/01 03:11:05;;;;;;;24.67;14.63;;;6.70;76.30;;;;;;6276848;22;20031;-75
2023/02/01 03:13:53;;;;;;;21.05;13.90;;;6.70;75.70;;;;;;6278163;22;20498;-75
2023/02/01 03:16:40;;;;;;;22.10;14.45;;;6.70;75.70;;;;;;6249202;22;20442;-74
2023/02/01 03:19:14;;;;;;;20.42;14.15;;;6.70;76.10;;;;;;6276157;22;20015;-75
2023/02/01 03:21:59;;;;;;;21.73;14.90;;;6.80;75.40;;;;;;6276519;22;20126;-74
2023/02/01 03:24:32;;;;;;;19.13;14.18;;;6.80;75.50;;;;;;6276029;22;20287;-75
2023/02/01 03:27:05;;;;;;;20.88;15.48;;;6.80;75.90;;;;;;6276037;22;20061;-75
2023/02/01 03:29:44;;;;;;;21.00;15.00;;;6.70;75.10;;;;;;6275869;22;20023;-74
2023/02/01 03:32:10;;;;;;;21.02;14.43;;;6.70;75.90;;;;;;6275686;22;19996;-75
2023/02/01 03:34:36;;;;;;;20.20;15.02;;;6.70;75.50;;;;;;6275621;22;20018;-74
2023/02/01 03:37:05;;;;;;;24.17;16.48;;;6.70;75.30;;;;;;6275846;22;20000;-74
2023/02/01 03:40:07;;;;;;;21.73;14.85;;;6.60;75.30;;;;;;6275802;22;19999;-75
2023/02/01 03:42:46;;;;;;;22.38;14.90;;;6.60;75.90;;;;;;6275838;22;20004;-74
2023/02/01 03:45:18;;;;;;;20.13;13.88;;;6.60;75.20;;;;;;6275670;22;20341;-74
2023/02/01 03:47:47;;;;;;;20.98;14.65;;;6.60;75.30;;;;;;6276386;22;20390;-73
2023/02/01 03:50:20;;;;;;;22.90;15.32;;;6.70;75.40;;;;;;6276563;22;20338;-73
2023/02/01 03:52:53;;;;;;;22.10;13.90;;;6.70;75.30;;;;;;6248326;22;20422;-74
2023/02/01 03:55:21;;;;;;;21.17;14.80;;;6.60;74.80;;;;;;6292008;22;20022;-73
2023/02/01 03:58:01;;;;;;;23.63;14.30;;;6.60;75.10;;;;;;6291034;22;20434;-74
2023/02/01 04:00:27;;;;;;;20.30;14.45;;;6.60;75.50;;;;;;6276238;22;20000;-75
2023/02/01 04:02:53;;;;;;;23.58;15.07;;;6.60;75.20;;;;;;6277024;22;20007;-75
2023/02/01 04:05:19;;;;;;;20.98;15.02;;;6.60;75.10;;;;;;6278205;22;20079;-74
2023/02/01 04:07:44;;;;;;;20.10;14.70;;;6.60;75.00;;;;;;6276482;22;20062;-74
2023/02/01 04:10:11;;;;;;;20.98;14.32;;;6.60;75.20;;;;;;6276129;22;20004;-74
2023/02/01 04:12:37;;;;;;;22.63;14.27;;;6.60;75.10;;;;;;6275701;22;19991;-74
2023/02/01 04:15:04;;;;;;;22.90;14.60;;;6.60;75.00;;;;;;6248206;22;20341;-73
2023/02/01 04:17:30;;;;;;;20.92;13.75;;;6.60;74.90;;;;;;6276290;22;20372;-75
2023/02/01 04:19:55;;;;;;;19.20;13.90;;;6.60;74.60;;;;;;6275713;22;20090;-74
2023/02/01 04:22:21;;;;;;;20.42;13.82;;;6.60;75.30;;;;;;6275857;22;20000;-74
2023/02/01 04:24:47;;;;;;;19.45;13.63;;;6.40;75.10;;;;;;6275789;22;20012;-74
2023/02/01 04:27:13;;;;;;;19.88;13.80;;;6.20;75.30;;;;;;6276140;22;20006;-74
2023/02/01 04:29:39;;;;;;;19.55;13.85;;;6.10;75.50;;;;;;6275953;22;20000;-74
2023/02/01 04:32:05;;;;;;;18.17;13.68;;;6.10;75.70;;;;;;6276058;22;20008;-74
2023/02/01 04:34:31;;;;;;;23.13;13.48;;;6.00;75.50;;;;;;6275814;22;20027;-73
2023/02/01 04:36:57;;;;;;;17.17;12.40;;;5.90;75.90;;;;;;6275988;22;20418;-74
2023/02/01 04:39:22;;;;;;;19.35;12.75;;;5.90;75.50;;;;;;6275670;22;20433;-74
2023/02/01 04:41:48;;;;;;;17.58;12.07;;;5.90;75.80;;;;;;6275877;22;20000;-74
2023/02/01 04:44:16;;;;;;;17.42;11.52;;;5.90;75.70;;;;;;6275612;22;20091;-74
2023/02/01 04:46:42;;;;;;;20.13;11.77;;;5.90;75.40;;;;;;6275675;22;19999;-75
2023/02/01 04:49:09;;;;;;;16.80;11.75;;;5.90;75.50;;;;;;6275888;22;20086;-74
2023/02/01 04:51:35;;;;;;;17.48;11.45;;;6.00;75.60;;;;;;6248606;22;20031;-74
2023/02/01 04:54:01;;;;;;;19.08;11.85;;;6.10;75.30;;;;;;6275970;22;20079;-75
2023/02/01 04:56:27;;;;;;;26.17;12.15;;;6.10;75.40;;;;;;6250256;22;20004;-75
2023/02/01 04:58:53;;;;;;;25.27;13.48;;;6.10;75.30;;;;;;6278150;22;20001;-74
2023/02/01 05:01:18;;;;;;;20.00;11.98;;;6.00;74.90;;;;;;6249670;22;20058;-73
2023/02/01 05:03:44;;;;;;;15.27;11.65;;;6.00;75.20;;;;;;6277446;22;20339;-73
2023/02/01 05:06:10;;;;;;;19.17;12.07;;;6.00;75.20;;;;;;6250693;22;20074;-75
2023/02/01 05:08:35;;;;;;;16.20;11.45;;;6.00;75.40;;;;;;6277723;22;19999;-74
2023/02/01 05:11:04;;;;;;;18.13;12.38;;;6.00;74.80;;;;;;6277664;22;20004;-76
2023/02/01 05:13:48;;;;;;;18.52;12.00;;;6.00;76.00;;;;;;6277618;22;20004;-74
2023/02/01 05:16:14;;;;;;;;;;;6.00;75.40;;;;;;6277970;22;20007;-73
2023/02/01 05:18:40;;;;;;;16.08;10.90;;;6.00;75.00;;;;;;6277443;22;19911;-74
2023/02/01 05:21:06;;;;;;;17.88;11.45;;;6.00;74.70;;;;;;6277470;22;20368;-74
2023/02/01 05:23:32;;;;;;;16.75;11.10;;;5.90;74.40;;;;;;6286501;22;20012;-71
2023/02/01 05:26:00;;;;;;;18.40;11.20;;;6.00;74.70;;;;;;6296694;22;19995;-74
2023/02/01 05:28:26;;;;;;;18.80;11.63;;;6.10;74.10;;;;;;6262874;22;20007;-74
2023/02/01 05:30:52;;;;;;;33.60;12.15;;;6.20;74.30;;;;;;6278022;22;19996;-74
2023/02/01 05:33:18;;;;;;;16.60;11.23;;;6.20;73.90;;;;;;6278077;22;20058;-75
2023/02/01 05:35:43;;;;;;;15.98;10.15;;;6.20;73.80;;;;;;6277496;22;20000;-74
2023/02/01 05:38:09;;;;;;;17.23;10.73;;;6.30;73.60;;;;;;6277312;22;20046;-75
2023/02/01 05:40:35;;;;;;;18.13;11.13;;;6.30;73.60;;;;;;6277079;22;20004;-75
2023/02/01 05:43:00;;;;;;;15.00;10.27;;;6.30;73.50;;;;;;6277458;22;19999;-74
2023/02/01 05:45:26;;;;;;;17.20;11.15;;;6.20;73.30;;;;;;6277552;22;20528;-74
2023/02/01 05:47:52;;;;;;;18.40;11.57;;;6.20;73.70;;;;;;6278848;22;19996;-75
2023/02/01 05:50:18;;;;;;;16.25;10.40;;;6.30;73.60;;;;;;6277692;22;20085;-74
2023/02/01 05:52:43;;;;;;;15.27;9.93;;;6.30;73.30;;;;;;6277633;22;19996;-74
2023/02/01 05:55:09;;;;;;;18.90;11.38;;;6.30;73.40;;;;;;6277294;22;20003;-74
2023/02/01 05:57:35;;;;;;;18.95;11.30;;;6.30;73.60;;;;;;6277199;22;20058;-75
2023/02/01 06:00:01;;;;;;;19.77;10.80;;;6.30;73.50;;;;;;6277762;22;20389;-73
2023/02/01 06:02:27;;;;;;;18.88;10.63;;;6.30;73.70;;;;;;6277224;22;20023;-75
2023/02/01 06:04:52;;;;;;;18.65;11.75;;;6.30;73.30;;;;;;6250110;22;20102;-75
2023/02/01 06:07:18;;;;;;;17.15;11.02;;;6.40;73.70;;;;;;6277145;22;20007;-74
2023/02/01 06:09:44;;;;;;;17.05;11.25;;;6.40;73.30;;;;;;6277477;22;20421;-73
2023/02/01 06:12:10;;;;;;;16.42;10.20;;;6.40;73.20;;;;;;6277270;22;19996;-75
2023/02/01 06:14:36;;;;;;;19.08;10.15;;;6.50;73.00;;;;;;6277290;22;20011;-73
2023/02/01 06:17:02;;;;;;;16.65;10.82;;;6.30;72.60;;;;;;6276922;22;19995;-75
2023/02/01 06:19:28;;;;;;;17.35;10.82;;;6.20;72.40;;;;;;6276784;22;20027;-74
2023/02/01 06:21:54;;;;;;;17.45;10.57;;;6.10;72.60;;;;;;6277252;22;20449;-74
2023/02/01 06:24:20;;;;;;;18.23;10.65;;;6.00;72.80;;;;;;6276804;22;20034;-74
2023/02/01 06:26:45;;;;;;;17.73;11.10;;;6.10;73.60;;;;;;6276509;22;19996;-74
2023/02/01 06:29:11;;;;;;;21.23;10.82;;;6.10;73.50;;;;;;6276978;22;20122;-74
2023/02/01 06:31:37;;;;;;;17.98;11.25;;;6.10;73.00;;;;;;6277009;22;20003;-74
2023/02/01 06:34:03;;;;;;;18.77;11.75;;;6.20;73.30;;;;;;6276901;22;20004;-74
2023/02/01 06:36:29;;;;;;;17.80;12.00;;;6.20;72.90;;;;;;6276876;22;20122;-75
2023/02/01 06:38:56;;;;;;;18.08;12.45;;;6.20;72.20;;;;;;6277297;22;19999;-73
2023/02/01 06:41:23;;;;;;;19.77;12.57;;;6.20;72.60;;;;;;6249598;22;20433;-78
2023/02/01 06:43:48;;;;;;;26.75;14.48;;;6.20;72.60;;;;;;6276742;22;20008;-75
2023/02/01 06:46:15;;;;;;;27.00;14.98;;;6.30;72.60;;;;;;6277045;22;20307;-74
2023/02/01 06:48:41;;;;;;;23.60;14.90;;;6.30;72.60;;;;;;6277247;22;20003;-76
2023/02/01 06:51:17;;;;;;;21.00;13.98;;;6.40;72.90;;;;;;6285701;22;20026;-78
2023/02/01 06:53:43;;;;;;;21.83;13.93;;;6.40;72.40;;;;;;6297309;22;19999;-77
2023/02/01 06:56:09;;;;;;;20.45;12.65;;;6.40;71.90;;;;;;6283625;22;19996;-79
2023/02/01 06:58:35;;;;;;;18.40;12.25;;;6.50;72.00;;;;;;6277306;22;20015;-78
2023/02/01 07:01:08;;;;;;;18.70;12.15;;;6.50;72.10;;;;;;6277676;22;19996;-79
2023/02/01 07:03:34;;;;;;;21.25;12.48;;;6.50;71.80;;;;;;6277304;22;20046;-78
2023/02/01 07:06:00;;;;;;;17.02;11.85;;;6.50;71.50;;;;;;6277747;22;19996;-77
2023/02/01 07:08:29;;;;;;;18.05;12.50;;;6.50;71.20;;;;;;6282839;22;20000;-79
2023/02/01 07:10:55;;;;;;;26.00;13.27;;;6.50;70.90;;;;;;6303252;22;20014;-76
2023/02/01 07:13:21;;;;;;;22.67;12.85;;;6.60;71.40;;;;;;6299121;22;20019;-78
2023/02/01 07:15:47;;;;;;;19.50;11.25;;;6.60;71.00;;;;;;6277385;22;19999;-77
2023/02/01 07:18:14;;;;;;;17.60;12.40;;;6.70;70.30;;;;;;6277636;22;20008;-77
2023/02/01 07:20:40;;;;;;;24.58;10.98;;;6.70;70.10;;;;;;6277566;22;20074;-78
2023/02/01 07:23:07;;;;;;;18.05;11.32;;;6.80;70.20;;;;;;6276738;22;20083;-77
2023/02/01 07:25:34;;;;;;;16.15;10.50;;;6.90;69.60;;;;;;6277052;22;20379;-77
2023/02/01 07:28:00;;;;;;;18.45;10.68;;;7.00;69.80;;;;;;6277782;22;20027;-78
2023/02/01 07:30:26;;;;;;;19.55;10.50;;;7.10;70.00;;;;;;6276381;22;19999;-80
2023/02/01 07:32:51;;;;;;;17.77;10.07;;;7.20;69.90;;;;;;6275868;22;20056;-77
2023/02/01 07:35:17;;;;;;;24.65;10.70;;;7.20;69.00;;;;;;6276791;22;20006;-77
2023/02/01 07:37:42;;;;;;;17.38;10.32;;;7.20;69.40;;;;;;6250057;22;20456;-78
2023/02/01 07:40:09;;;;;;;18.85;10.15;;;7.30;69.20;;;;;;6276750;22;20003;-79
2023/02/01 07:42:35;;;;;;;18.45;11.00;;;7.40;69.90;;;;;;6276518;22;20000;-78
2023/02/01 07:45:02;;;;;;;16.83;10.18;;;7.50;68.70;;;;;;6276744;22;20393;-77
2023/02/01 07:47:27;;;;;;;21.80;10.82;;;7.60;68.70;;;;;;6276380;22;20369;-78
2023/02/01 07:49:53;;;;;;;16.90;10.73;;;7.60;68.90;;;;;;6249028;22;20008;-77
2023/02/01 07:52:19;;;;;;;18.75;10.20;;;7.60;68.10;;;;;;6277774;22;20256;-75
2023/02/01 07:54:44;;;;;;;18.35;10.38;;;7.50;68.10;;;;;;6275519;22;20082;-76
2023/02/01 07:57:11;;;;;;;18.13;10.43;;;7.60;68.40;;;;;;6277795;22;20042;-77
2023/02/01 08:01:19;;;;;;;18.60;10.35;;;7.60;68.30;;;;;;6275269;22;20026;-73
2023/02/01 08:02:23;;;;;;;16.42;10.10;;;7.70;67.80;;;;;;6277072;22;20003;-78
2023/02/01 08:04:48;;;;;;;20.65;10.35;;;7.80;67.60;;;;;;6277145;22;20075;-76
2023/02/01 08:07:14;;;;;;;20.67;9.77;;;7.90;67.90;;;;;;6277154;22;20071;-78
2023/02/01 08:09:40;;;;;;;16.88;9.85;;;7.80;66.90;;;;;;6248354;22;20008;-72
2023/02/01 08:12:06;;;;;;;22.65;10.60;;;8.00;67.60;;;;;;6249340;22;20062;-79
2023/02/01 08:14:32;;;;;;;20.20;10.98;;;8.10;67.70;;;;;;6288064;22;20019;-80
2023/02/01 08:16:57;;;;;;;15.57;10.40;;;8.00;66.80;;;;;;6292472;22;20027;-75
2023/02/01 08:19:23;;;;;;;16.88;10.48;;;8.10;66.90;;;;;;6276107;22;20446;-75
2023/02/01 08:21:49;;;;;;;19.70;11.15;;;8.10;67.20;;;;;;6275996;22;20365;-74
2023/02/01 08:24:14;;;;;;;20.83;12.45;;;8.20;67.30;;;;;;6275426;22;20406;-75
2023/02/01 08:26:40;;;;;;;19.77;11.45;;;8.20;67.10;;;;;;6275114;22;20039;-75
2023/02/01 08:29:08;;;;;;;22.00;11.30;;;8.30;66.90;;;;;;6275158;22;20004;-74
2023/02/01 08:31:34;;;;;;;21.58;11.57;;;8.40;66.70;;;;;;6275550;22;20007;-75
2023/02/01 08:34:04;;;;;;;26.27;12.60;;;8.40;67.00;;;;;;6274849;22;19999;-74
2023/02/01 08:36:30;;;;;;;21.73;11.20;;;8.50;66.80;;;;;;6276892;22;20078;-75
2023/02/01 08:38:57;;;;;;;22.35;11.90;;;8.60;66.60;;;;;;6278134;22;20421;-75
2023/02/01 08:41:26;;;;;;;25.63;12.18;;;8.60;66.70;;;;;;6277340;22;20445;-75
2023/02/01 08:43:53;;;;;;;22.42;11.60;;;8.70;66.50;;;;;;6277351;22;20413;-75
2023/02/01 08:46:19;;;;;;;20.80;11.70;;;8.80;66.20;;;;;;6277875;22;19995;-75
2023/02/01 08:48:46;;;;;;;22.48;11.88;;;8.80;66.30;;;;;;6278089;22;20030;-74
2023/02/01 08:51:14;;;;;;;31.42;11.73;;;8.80;66.30;;;;;;6277834;22;19996;-73
2023/02/01 08:53:41;;;;;;;22.35;11.18;;;8.80;66.00;;;;;;6277564;22;20074;-74
2023/02/01 08:56:07;;;;;;;19.77;11.65;;;8.70;65.80;;;;;;6278002;22;20004;-75
2023/02/01 08:58:33;;;;;;;27.13;11.65;;;8.70;66.00;;;;;;6278039;22;19999;-74
2023/02/01 09:01:04;;;;;;;21.40;11.68;;;8.70;66.70;;;;;;6278308;22;20010;-73
2023/02/01 09:03:29;;;;;;;24.13;12.55;;;8.70;66.10;;;;;;6277603;22;20008;-74
2023/02/01 09:06:01;;;;;;;22.15;12.63;;;8.70;66.10;;;;;;6277483;22;20031;-75
2023/02/01 09:08:27;;;;;;;23.95;12.57;;;8.70;66.00;;;;;;6277445;22;20006;-76
2023/02/01 09:10:52;;;;;;;23.15;12.52;;;8.70;66.10;;;;;;6250254;22;20003;-76
2023/02/01 09:13:18;;;;;;;26.65;12.85;;;8.70;65.90;;;;;;6278691;22;20330;-75
2023/02/01 09:15:43;;;;;;;19.88;12.45;;;8.80;66.00;;;;;;6277878;22;20023;-76
2023/02/01 09:18:09;;;;;;;21.48;12.73;;;8.80;65.90;;;;;;6277004;22;20015;-75
2023/02/01 09:20:37;;;;;;;19.67;13.43;;;8.80;65.90;;;;;;6277944;22;20008;-75
2023/02/01 09:23:02;;;;;;;18.50;12.10;;;8.80;65.90;;;;;;6277048;22;20379;-74
2023/02/01 09:25:28;;;;;;;34.92;14.73;;;8.80;65.70;;;;;;6277261;22;20032;-76
2023/02/01 09:27:54;;;;;;;20.40;11.65;;;8.80;65.40;;;;;;6277901;22;20077;-76
2023/02/01 09:30:19;;;;;;;21.92;12.02;;;8.80;65.10;;;;;;6278207;22;20000;-79
2023/02/01 09:32:45;;;;;;;21.95;11.63;;;8.80;65.00;;;;;;6294799;22;20086;-78
2023/02/01 09:35:11;;;;;;;23.58;11.52;;;8.90;65.30;;;;;;6224850;22;20000;-76
2023/02/01 09:37:37;;;;;;;19.75;11.30;;;9.00;65.10;;;;;;6276108;22;20291;-76
2023/02/01 09:40:04;;;;;;;21.73;11.07;;;9.10;65.00;;;;;;6278059;22;20066;-76
2023/02/01 09:42:47;;;;;;;21.55;11.80;;;9.10;64.60;;;;;;6279176;22;20016;-76
2023/02/01 09:45:28;;;;;;;22.80;12.05;;;9.20;64.70;;;;;;6254752;22;20350;-77
2023/02/01 09:47:57;;;;;;;23.02;11.43;;;9.20;64.60;;;;;;6285377;22;20035;-76
2023/02/01 09:50:34;;;;;;;20.85;12.05;;;9.30;64.50;;;;;;6296951;22;20004;-76
2023/02/01 09:53:32;;;;;;;22.75;12.15;;;9.40;64.20;;;;;;6293594;22;19999;-76
2023/02/01 09:56:24;;;;;;;22.30;12.35;;;9.60;64.40;;;;;;6276814;22;20152;-76
2023/02/01 09:59:28;;;;;;;17.67;10.80;;;9.70;63.90;;;;;;6277759;22;20000;-75
2023/02/01 10:01:54;;;;;;;23.73;11.45;;;9.80;63.80;;;;;;6277286;22;20000;-76
2023/02/01 10:04:20;;;;;;;19.33;10.98;;;10.00;63.00;;;;;;6276983;22;20065;-76
2023/02/01 10:07:37;;;;;;;25.35;12.30;;;10.10;62.50;;;;;;6277167;22;20079;-75
2023/02/01 10:10:15;;;;;;;20.17;11.68;;;10.30;62.50;;;;;;6200313;22;20441;-76
2023/02/01 10:13:30;;;;;;;22.27;11.85;;;10.40;62.20;;;;;;6250440;22;20028;-75
2023/02/01 10:16:21;;;;;;;27.27;12.20;;;10.50;62.00;;;;;;6269492;22;20066;-75
2023/02/01 10:19:06;;;;;;;26.75;12.60;;;10.70;62.30;;;;;;6249582;22;20023;-75
2023/02/01 10:22:09;;;;;;;22.15;12.93;;;10.80;61.60;;;;;;6277490;22;20023;-75
2023/02/01 10:24:59;;;;;;;23.60;13.27;;;10.80;61.80;;;;;;6279574;22;20342;-73
2023/02/01 10:27:40;;;;;;;21.67;12.45;;;10.80;61.80;;;;;;6279079;22;20475;-76
2023/02/01 10:30:20;;;;;;;16.50;11.82;;;10.90;61.40;;;;;;6277696;22;20335;-74
2023/02/01 10:32:49;;;;;;;23.20;13.52;;;11.10;61.40;;;;;;6249839;22;20007;-79
2023/02/01 10:35:18;;;;;;;26.73;12.95;;;11.10;60.50;;;;;;6277702;22;20008;-77
2023/02/01 10:37:46;;;;;;;26.50;13.50;;;11.20;60.70;;;;;;6277505;22;20003;-76
2023/02/01 10:40:24;;;;;;;23.40;13.00;;;11.30;60.80;;;;;;6277077;22;20046;-76
2023/02/01 10:42:53;;;;;;;21.13;12.93;;;11.40;60.70;;;;;;6277603;22;20016;-77
2023/02/01 10:45:24;;;;;;;20.02;12.88;;;11.40;60.40;;;;;;6277037;22;20050;-76
2023/02/01 10:47:52;;;;;;;24.25;13.25;;;11.40;60.50;;;;;;6277487;22;20003;-75
2023/02/01 10:50:34;;;;;;;25.05;13.10;;;11.40;60.80;;;;;;6249912;22;20430;-76
2023/02/01 10:53:10;;;;;;;24.02;13.73;;;11.50;60.70;;;;;;6277560;22;20087;-75
2023/02/01 10:55:45;;;;;;;24.73;13.50;;;11.50;60.40;;;;;;6285415;22;20003;-76
2023/02/01 10:58:19;;;;;;;23.13;13.55;;;11.50;60.60;;;;;;6276650;22;20010;-76
2023/02/01 11:00:47;;;;;;;23.23;14.18;;;11.50;60.50;;;;;;6275858;22;19999;-76
2023/02/01 11:03:41;;;;;;;21.17;13.52;;;11.50;60.70;;;;;;6276753;22;20011;-76
2023/02/01 11:06:17;;;;;;;;;;;11.60;61.40;;;;;;6277262;22;20008;-76
2023/02/01 11:08:52;;;;;;;23.05;13.65;;;11.70;60.90;;;;;;6276775;22;19899;-76
2023/02/01 11:11:19;;;;;;;37.22;15.07;;;11.90;61.20;;;;;;6276632;22;20008;-76
2023/02/01 11:13:54;;;;;;;29.95;13.65;;;11.90;60.30;;;;;;6277235;22;20507;-76
2023/02/01 11:16:19;;;;;;;22.13;14.25;;;11.90;61.00;;;;;;6249546;22;20018;-75
2023/02/01 11:18:54;;;;;;;20.90;12.80;;;12.00;60.30;;;;;;6275467;22;20043;-73
2023/02/01 11:21:21;;;;;;;29.45;13.82;;;11.90;60.10;;;;;;6275954;22;20000;-75
2023/02/01 11:23:47;;;;;;;37.65;14.68;;;11.90;60.60;;;;;;6276132;22;20082;-76
2023/02/01 11:26:19;;;;;;;26.13;14.05;;;11.90;60.60;;;;;;6275814;22;20007;-78
2023/02/01 11:28:54;;;;;;;38.40;15.02;;;12.00;60.70;;;;;;6291634;22;20461;-75
2023/02/01 11:31:20;;;;;;;22.95;14.00;;;12.00;60.70;;;;;;6338149;22;19994;-78
2023/02/01 11:33:53;;;;;;;27.77;14.48;;;12.00;60.50;;;;;;6339036;22;20080;-74
2023/02/01 11:36:26;;;;;;;34.28;14.50;;;12.00;60.40;;;;;;6338663;22;19999;-74
2023/02/01 11:39:15;;;;;;;28.20;14.77;;;12.00;60.60;;;;;;6338120;22;20025;-75
2023/02/01 11:42:14;;;;;;;28.92;13.55;;;12.00;60.70;;;;;;6321223;22;20070;-73
2023/02/01 11:44:43;;;;;;;29.27;14.18;;;12.10;61.40;;;;;;6337537;22;20466;-74
2023/02/01 11:47:33;;;;;;;34.05;14.40;;;12.20;60.30;;;;;;6337270;22;20025;-74
2023/02/01 11:50:02;;;;;;;34.95;15.57;;;12.30;60.40;;;;;;6339439;22;20030;-75
2023/02/01 11:53:21;;;;;;;26.60;14.27;;;12.50;60.30;;;;;;6338219;22;20324;-75
2023/02/01 11:56:28;;;;;;;31.67;14.23;;;12.70;61.10;;;;;;6212153;23;20389;-74
2023/02/01 11:59:03;;;;;;;24.50;14.80;;;12.90;60.70;;;;;;6266674;22;20019;-74
2023/02/01 12:02:02;;;;;;;22.73;14.30;;;13.20;59.30;;;;;;6337826;22;19999;-86
2023/02/01 12:05:10;;;;;;;26.30;13.02;;;13.40;60.10;;;;;;6343312;22;20026;-70
2023/02/01 12:07:46;;;;;;;25.58;13.13;;;13.50;59.60;;;;;;6331323;22;20056;-70
2023/02/01 12:10:20;;;;;;;33.05;12.95;;;13.70;59.90;;;;;;6337490;22;20082;-75
2023/02/01 12:13:04;;;;;;;24.08;13.45;;;13.80;59.50;;;;;;6336816;22;20044;-75
2023/02/01 12:15:47;;;;;;;17.23;10.55;;;13.90;60.00;;;;;;6335475;22;20017;-75
2023/02/01 12:18:35;;;;;;;18.02;9.60;;;14.00;60.00;;;;;;6337130;22;20044;-74
2023/02/01 12:21:21;;;;;;;17.35;9.45;;;14.10;60.60;;;;;;6337611;22;20002;-74
2023/02/01 12:24:05;;;;;;;20.05;10.80;;;14.10;61.50;;;;;;6337562;22;20385;-75
2023/02/01 12:26:30;;;;;;;;;;;14.10;61.90;;;;;;6337607;22;20033;-74
2023/02/01 12:29:26;;;;;;;19.85;9.77;;;14.00;61.10;;;;;;6337703;22;19910;-76
2023/02/01 12:32:28;;;;;;;11.13;6.60;;;14.00;62.30;;;;;;6338295;22;20002;-81
2023/02/01 12:35:10;;;;;;;11.50;5.15;;;14.10;61.00;;;;;;6338635;22;20050;-82
2023/02/01 12:37:40;;;;;;;11.02;5.40;;;14.10;61.90;;;;;;6341504;22;20424;-82
2023/02/01 12:40:30;;;;;;;12.00;5.32;;;14.00;61.90;;;;;;6339362;22;20010;-80
2023/02/01 12:43:50;;;;;;;11.85;6.40;;;14.10;61.50;;;;;;6338279;22;20026;-81
2023/02/01 12:46:25;;;;;;;10.27;6.03;;;14.00;62.30;;;;;;6182590;23;20021;-82
2023/02/01 12:49:16;;;;;;;13.05;6.30;;;14.10;62.80;;;;;;6333245;22;20428;-84
2023/02/01 12:51:46;;;;;;;11.13;6.28;;;14.20;62.70;;;;;;6338463;22;20003;-82
2023/02/01 12:54:23;;;;;;;11.70;6.88;;;14.30;61.70;;;;;;6340602;22;19999;-81
2023/02/01 12:56:55;;;;;;;16.65;7.90;;;14.30;62.40;;;;;;6311073;22;20014;-82
2023/02/01 12:59:33;;;;;;;16.58;8.10;;;14.40;61.70;;;;;;6339714;22;20007;-77
2023/02/01 13:02:12;;;;;;;15.38;8.15;;;14.50;61.70;;;;;;6338834;22;20003;-86
2023/02/01 13:05:01;;;;;;;18.67;9.48;;;14.60;61.90;;;;;;6338546;22;20011;-78
2023/02/01 13:07:34;;;;;;;14.13;8.40;;;14.70;61.50;;;;;;6337930;22;20282;-77
2023/02/01 13:10:08;;;;;;;18.75;8.52;;;14.70;60.90;;;;;;6338411;22;20007;-78
2023/02/01 13:12:40;;;;;;;15.52;7.85;;;14.60;61.50;;;;;;6339226;22;20424;-79
2023/02/01 13:15:21;;;;;;;14.13;7.97;;;14.40;61.20;;;;;;6340912;22;20016;-79
2023/02/01 13:17:49;;;;;;;11.98;7.40;;;14.30;61.20;;;;;;6351268;22;20412;-80